M I D A S
Marine Information and Data Acquisition System
Tripno 198 of the Zeeleeuw from 2002-01-16 04:26:10 to 2002-01-16 16:04:49
Back to CruiseResearch ActivitiesStationsMapUnderway DataData graphs

EquipmentUnitsComment
TimeDGPSUTC
LatitudeDGPSDM.mWGS84
LongitudeDGPSDM.mWGS84
HeadingGyrodeg 
SOGDGPSknotsSpeed over ground
COGDGPSdegCourse over ground
DepthEcho soundermeters200 kHz
Missing or incorrect values are displayed as -999
Navigation data collected by the RV Zeeleeuw from 2002-01-16 04:26:10 to 2002-01-16 16:04:49
Time Latitude Longitude Heading SOG COG Depth
2002-01-16 04:27:13 51°13.689 2°55.906 123.2 0.1 219.3 8.7
2002-01-16 04:28:13 51°13.687 2°55.905 112.5 0.1 207.6 8.9
2002-01-16 04:29:12 51°13.686 2°55.904 102.7   219.3 9.1
2002-01-16 04:30:12 51°13.685 2°55.901 93.8 0.6 279.4 9.7
2002-01-16 04:31:14 51°13.683 2°55.819 84 3.5 264.3 -999
2002-01-16 04:32:11 51°13.674 2°55.736 78.8 2.4 260.1 12.4
2002-01-16 04:33:13 51°13.718 2°55.74 349.3 5.3 348.3 13.3
2002-01-16 04:34:12 51°13.831 2°55.641 335.7 8.9 332.5 11.4
2002-01-16 04:35:12 51°13.971 2°55.533 337.8 9.1 335 11.3
2002-01-16 04:36:13 51°14.074 2°55.454 338.7 5.9 335.5 11.5
2002-01-16 04:37:12 51°14.207 2°55.34 329.3 11.3 326.5 11.5
2002-01-16 04:38:13 51°14.333 2°55.098 304.2 12 301 11.7
2002-01-16 04:39:13 51°14.448 2°54.825 316.8 12.8 312.9 11.7
2002-01-16 04:40:13 51°14.595 2°54.582 318 12.7 314.9 11.2
2002-01-16 04:41:13 51°14.744 2°54.356 314.3 12.3 313 11.5
2002-01-16 04:42:14 51°14.915 2°54.166 332.2 12.5 330.6 10.5
2002-01-16 04:43:13 51°15.094 2°54.005 332.5 12.7 329.9 10.7
2002-01-16 04:44:12 51°15.273 2°53.841 333.3 12.8 331 11.2
2002-01-16 04:45:13 51°15.464 2°53.664 331.8 13.1 329.1 11.8
2002-01-16 04:46:13 51°15.663 2°53.505 336 13.7 334.1 12.6
2002-01-16 04:47:13 51°15.869 2°53.346 335.2 13.8 334.6 13.2
2002-01-16 04:48:13 51°16.074 2°53.187 335.2 13.7 334 13.6
2002-01-16 04:49:13 51°16.28 2°53.029 336 13.8 334.1 13.8
2002-01-16 04:50:13 51°16.488 2°52.874 337 13.9 335.5 13.5
2002-01-16 04:51:13 51°16.698 2°52.728 337.8 13.7 337.3 12.2
2002-01-16 04:52:13 51°16.91 2°52.59 339.2 13.8 337.2 11.3
2002-01-16 04:53:13 51°17.121 2°52.445 340.3 13.8 338 11.2
2002-01-16 04:54:13 51°17.335 2°52.308 341.2 13.9 338.4 11.7
2002-01-16 04:55:13 51°17.551 2°52.184 343 13.8 340.4 11.8
2002-01-16 04:56:13 51°17.775 2°52.1 351.5 14 348.9 11.7
2002-01-16 04:57:13 51°18.006 2°52.05 357.5 14.1 354.3 11.9
2002-01-16 04:58:13 51°18.235 2°52.092 30.2 13.9 25.6 5.6
2002-01-16 04:59:13 51°18.376 2°52.37 74.5 13.7 68.6 12.6
2002-01-16 05:00:13 51°18.447 2°52.717 76.8 13.7 73.1 12.4
2002-01-16 05:01:13 51°18.521 2°53.061 74.8 13.6 69.6 12.6
2002-01-16 05:02:13 51°18.602 2°53.403 74.2 13.6 69.8 12.6
2002-01-16 05:03:13 51°18.677 2°53.747 74.8 13.8 69.7 12.6
2002-01-16 05:04:13 51°18.753 2°54.089 75 13.6 69.7 12.5
2002-01-16 05:05:13 51°18.828 2°54.432 75 13.7 70.2 12.4
2002-01-16 05:06:13 51°18.907 2°54.774 74.8 13.6 70.8 12.4
2002-01-16 05:07:13 51°18.981 2°55.119 74.3 13.7 70.1 12.3
2002-01-16 05:08:13 51°19.059 2°55.46 75.2 13.6 71 12.3
2002-01-16 05:09:13 51°19.132 2°55.802 75.2 13.6 70.9 11.9
2002-01-16 05:10:13 51°19.205 2°56.143 75.2 13.6 70.3 11.8
2002-01-16 05:11:13 51°19.281 2°56.481 74.3 13.6 70.5 11.6
2002-01-16 05:12:13 51°19.368 2°56.812 70.2 13.5 66.1 11.5
2002-01-16 05:13:13 51°19.464 2°57.138 68.8 13.5 66 11.4
2002-01-16 05:14:13 51°19.558 2°57.463 70 13.5 65.9 11.2
2002-01-16 05:15:13 51°19.648 2°57.791 70.2 13.5 65.4 11.2
2002-01-16 05:16:13 51°19.739 2°58.12 75.2 13.5 70.2 11.2
2002-01-16 05:17:13 51°19.812 2°58.46 71.7 13.5 68.3 11
2002-01-16 05:18:13 51°19.896 2°58.793 72.2 13.6 67.3 10.9
2002-01-16 05:19:13 51°19.98 2°59.129 72 13.7 68.1 10.9
2002-01-16 05:20:13 51°20.066 2°59.463 71 13.5 67.8 10.7
2002-01-16 05:21:13 51°20.151 2°59.797 71.2 13.6 67.3 10.7
2002-01-16 05:22:13 51°20.233 3°0.134 73 13.6 69.3 10.5
2002-01-16 05:23:13 51°20.317 3°0.468 72.5 13.5 69.5 10.7
2002-01-16 05:24:13 51°20.401 3°0.801 72.7 13.5 68.6 10.6
2002-01-16 05:25:13 51°20.491 3°1.137 71.5 13.9 67.1 10.7
2002-01-16 05:26:13 51°20.578 3°1.474 71.8 13.6 67.8 10.5
2002-01-16 05:27:13 51°20.666 3°1.804 70.5 13.4 65.8 10.6
2002-01-16 05:28:13 51°20.795 3°2.098 57.8 13.5 53.1 10.9
2002-01-16 05:29:13 51°20.923 3°2.393 60.8 13.5 56.3 11.1
2002-01-16 05:30:13 51°21.051 3°2.686 59.3 13.2 55.4 11.2
2002-01-16 05:31:13 51°21.175 3°2.977 58.5 13.2 54.2 11.3
2002-01-16 05:32:13 51°21.317 3°3.244 53.8 13.2 50.4 11.4
2002-01-16 05:33:13 51°21.457 3°3.513 55.8 13.1 51.7 11.8
2002-01-16 05:34:13 51°21.583 3°3.799 61.2 13.2 57.3 11.9
2002-01-16 05:35:13 51°21.701 3°4.095 64 13.1 59.7 12
2002-01-16 05:36:13 51°21.806 3°4.402 66.8 13.1 62.4 12.2
2002-01-16 05:37:13 51°21.911 3°4.71 63.5 13.3 60 12
2002-01-16 05:38:13 51°22.016 3°5.019 69 13.1 63.9 12.5
2002-01-16 05:39:13 51°22.096 3°5.345 77 13.2 73.3 12.6
2002-01-16 05:40:13 51°22.161 3°5.68 75.3 13.1 72 12.8
2002-01-16 05:41:13 51°22.213 3°6.015 82.7 13 79.7 12.9
2002-01-16 05:42:13 51°22.26 3°6.354 80.5 13.2 78.3 13
2002-01-16 05:43:13 51°22.289 3°6.699 87.2 13 84.9 13
2002-01-16 05:44:13 51°22.316 3°7.044 84.3 13 81.2 12.9
2002-01-16 05:45:13 51°22.345 3°7.387 85.5 13 82.8 13
2002-01-16 05:46:13 51°22.375 3°7.73 85.5 13.1 82.4 13.1
2002-01-16 05:47:13 51°22.401 3°8.07 90.2 12.7 86.7 13.2
2002-01-16 05:48:13 51°22.408 3°8.412 90.3 12.9 87.2 13.2
2002-01-16 05:49:13 51°22.41 3°8.756 93.5 12.9 90.4 13.4
2002-01-16 05:50:13 51°22.407 3°9.092 93.2 12.5 90.9 13.4
2002-01-16 05:51:13 51°22.4 3°9.428 94.2 12.6 91.6 13.7
2002-01-16 05:52:13 51°22.393 3°9.76 94.2 12.5 91.8 14
2002-01-16 05:53:12 51°22.391 3°10.08 96.2 12.2 90.9 14.5
2002-01-16 05:54:13 51°22.394 3°10.414 90.7 12.3 87.4 17.3
2002-01-16 05:55:13 51°22.402 3°10.737 89.3 12.2 88.7 16.6
2002-01-16 05:56:13 51°22.441 3°11.05 76 12.2 73.7 16
2002-01-16 05:57:13 51°22.475 3°11.373 87.2 12.5 85.8 15.9
2002-01-16 05:58:13 51°22.497 3°11.701 84.5 12.4 82.8 15.6
2002-01-16 05:59:13 51°22.523 3°12.03 84.5 12.5 82 14.9
2002-01-16 06:00:13 51°22.548 3°12.356 85.5 12.2 83.2 14.4
2002-01-16 06:01:13 51°22.586 3°12.678 80.7 12.4 77.7 13.9
2002-01-16 06:02:13 51°22.63 3°12.997 81.7 12.3 76.5 13.1
2002-01-16 06:03:13 51°22.677 3°13.313 82.8 12.2 78.3 12.3
2002-01-16 06:04:13 51°22.718 3°13.626 81.3 12 77.5 11.5
2002-01-16 06:05:13 51°22.76 3°13.941 82.2 12 78 11.1
2002-01-16 06:06:13 51°22.801 3°14.25 82.5 11.8 78.6 10.6
2002-01-16 06:07:13 51°22.844 3°14.556 80.8 11.8 76.4 10.1
2002-01-16 06:08:13 51°22.885 3°14.862 82.2 11.7 77.9 9.7
2002-01-16 06:09:13 51°22.926 3°15.169 81.8 11.8 78.1 9.3
2002-01-16 06:10:13 51°22.966 3°15.474 82.3 11.7 78 9
2002-01-16 06:11:13 51°23.007 3°15.775 82.5 11.5 78.5 8.9
2002-01-16 06:12:13 51°23.046 3°16.075 82.3 11.5 78.7 8.7
2002-01-16 06:13:13 51°23.089 3°16.375 81.3 11.5 77.1 8.6
2002-01-16 06:14:13 51°23.127 3°16.677 83.3 11.6 80.1 8.6
2002-01-16 06:15:13 51°23.168 3°16.979 81.5 11.6 77.6 8.6
2002-01-16 06:16:13 51°23.207 3°17.283 81.8 11.6 78.3 8.6
2002-01-16 06:17:13 51°23.248 3°17.583 80.7 11.5 76.7 9
2002-01-16 06:18:13 51°23.288 3°17.884 81.8 11.5 78.4 9.3
2002-01-16 06:19:13 51°23.329 3°18.184 81.7 11.5 77.1 10.2
2002-01-16 06:20:13 51°23.371 3°18.481 82 11.4 76.6 10.6
2002-01-16 06:21:13 51°23.412 3°18.778 82.3 11.3 78.4 10.8
2002-01-16 06:22:13 51°23.453 3°19.072 81.3 11.4 77.3 11.1
2002-01-16 06:23:13 51°23.496 3°19.365 82.2 11.2 77.3 11.5
2002-01-16 06:24:13 51°23.538 3°19.657 81.7 11.3 76.5 11.6
2002-01-16 06:25:13 51°23.581 3°19.953 81.7 11.4 76.9 11.7
2002-01-16 06:26:13 51°23.625 3°20.247 82.5 11.3 78 12.1
2002-01-16 06:27:13 51°23.667 3°20.541 82.7 11.2 78.2 12.4
2002-01-16 06:28:13 51°23.708 3°20.836 81.7 11.4 76.8 12.7
2002-01-16 06:29:13 51°23.748 3°21.133 81.8 11.4 78.1 13.1
2002-01-16 06:30:13 51°23.79 3°21.428 80.8 11.3 77 13.4
2002-01-16 06:31:13 51°23.83 3°21.723 82.5 11.3 78.2 13.7
2002-01-16 06:32:13 51°23.87 3°22.017 81.7 11.2 77.5 14
2002-01-16 06:33:13 51°23.91 3°22.303 81.3 11 76.4 14.4
2002-01-16 06:34:13 51°23.949 3°22.589 81.3 11 77.1 14.7
2002-01-16 06:35:13 51°23.987 3°22.874 80.8 11 77.2 15.1
2002-01-16 06:36:13 51°24.023 3°23.156 81.3 10.7 77.7 15.4
2002-01-16 06:37:13 51°24.059 3°23.433 81.8 10.8 78 15.6
2002-01-16 06:38:13 51°24.074 3°23.715 88.7 10.6 88.2 15.6
2002-01-16 06:39:13 51°24.082 3°23.999 85.3 10.6 83.7 15.5
2002-01-16 06:40:13 51°24.1 3°24.278 83.5 10.6 82.1 15.6
2002-01-16 06:41:13 51°24.129 3°24.556 82.7 10.6 80.8 15.7
2002-01-16 06:42:13 51°24.16 3°24.835 81.7 10.7 78.2 15.7
2002-01-16 06:43:13 51°24.192 3°25.113 81.8 10.6 80 16
2002-01-16 06:44:13 51°24.223 3°25.389 82.2 10.5 79.8 16
2002-01-16 06:45:13 51°24.254 3°25.665 82.3 10.7 80.4 15.6
2002-01-16 06:46:13 51°24.284 3°25.943 81.8 10.5 80.2 15.5
2002-01-16 06:47:13 51°24.314 3°26.217 81.7 10.4 79.7 15.4
2002-01-16 06:48:13 51°24.344 3°26.493 80.8 10.5 78.9 15.4
2002-01-16 06:49:13 51°24.377 3°26.771 81.5 10.7 79 15.5
2002-01-16 06:50:13 51°24.409 3°27.052 82.2 10.8 80.4 15.3
2002-01-16 06:51:13 51°24.44 3°27.333 82.3 10.8 80.2 16.3
2002-01-16 06:52:13 51°24.473 3°27.617 80.8 10.8 78.8 16.1
2002-01-16 06:53:13 51°24.505 3°27.899 82.5 10.7 80.1 16
2002-01-16 06:54:13 51°24.539 3°28.179 82.2 10.8 79.3 15.6
2002-01-16 06:55:13 51°24.573 3°28.462 81.5 10.9 78.6 15.9
2002-01-16 06:56:13 51°24.608 3°28.748 81.3 10.9 78.6 16.1
2002-01-16 06:57:13 51°24.644 3°29.036 82.2 11.1 78.7 16.8
2002-01-16 06:58:13 51°24.677 3°29.327 83 11.1 79.5 17.8
2002-01-16 06:59:13 51°24.712 3°29.62 83.5 11.3 79.5 19.3
2002-01-16 07:00:13 51°24.75 3°29.915 83 11.4 78.3 21.6
2002-01-16 07:01:13 51°24.782 3°30.213 85.5 11.4 80.7 22.3
2002-01-16 07:02:13 51°24.807 3°30.512 87.5 11.4 82.5 22.9
2002-01-16 07:03:13 51°24.836 3°30.81 87.3 11.3 81.7 23
2002-01-16 07:04:13 51°24.862 3°31.104 89.3 11.2 83.2 25
2002-01-16 07:05:13 51°24.878 3°31.404 90.8 11.4 85.2 26.4
2002-01-16 07:06:13 51°24.898 3°31.699 90.2 10.5 83.6 25.7
2002-01-16 07:07:13 51°24.896 3°31.85 110.3 3.7 108.8 23.7
2002-01-16 07:08:13 51°24.869 3°31.899 121.8 1.9 142 25.5
2002-01-16 07:09:13 51°24.856 3°31.92 108 0.7 120.2 25.5
2002-01-16 07:10:13 51°24.862 3°32.047 84.5 9.2 76.7 23.3
2002-01-16 07:11:13 51°24.905 3°32.33 85.3 11.3 77.7 26.6
2002-01-16 07:12:13 51°24.969 3°32.618 87.2 11 81 26.7
2002-01-16 07:13:13 51°24.991 3°32.898 86.7 10.5 81.2 26
2002-01-16 07:14:13 51°25.011 3°33.184 89.8 10.8 84.6 24.4
2002-01-16 07:15:13 51°25.026 3°33.471 91.3 10.9 85.7 23.1
2002-01-16 07:16:13 51°25.037 3°33.765 92.5 11.1 86.3 22.5
2002-01-16 07:17:13 51°25.036 3°34.049 93.7 9.2 88.3 22.2
2002-01-16 07:18:13 51°25.03 3°34.205 108 3.9 106.1 22.1
2002-01-16 07:19:13 51°25.029 3°34.261 88.3 1.6 68.2 22
2002-01-16 07:20:13 51°25.03 3°34.284 109.7 0.6 124.9 22.1
2002-01-16 07:21:13 51°25.021 3°34.291 116 0.6 170.8 21.9
2002-01-16 07:22:12 51°25.012 3°34.281 116.7 1.3 261.3 21.6
2002-01-16 07:23:13 51°25.012 3°34.262 86.3 0.5 322.8 21.7
2002-01-16 07:24:13 51°25.025 3°34.254 75.8 1 346.4 21.9
2002-01-16 07:25:13 51°25.043 3°34.251 78.7 1 357.2 22.2
2002-01-16 07:26:12 51°25.053 3°34.255 90.8 0.6 25.9 22.4
2002-01-16 07:27:13 51°25.063 3°34.266 90.8 0.8 44.6 22.5
2002-01-16 07:28:13 51°25.073 3°34.284 88.7 0.9 44.9 22.7
2002-01-16 07:29:13 51°25.085 3°34.292 87.8 0.6 0.3 22.7
2002-01-16 07:30:13 51°25.094 3°34.286 90 0.6 326.5 22.9
2002-01-16 07:31:13 51°25.102 3°34.272 91.7 0.8 303.8 23
2002-01-16 07:32:13 51°25.11 3°34.251 89.3 1 299.3 23.1
2002-01-16 07:33:13 51°25.118 3°34.224 85.3 1.2 297.9 23.3
2002-01-16 07:34:13 51°25.128 3°34.196 78.2 1.2 304.4 23.3
2002-01-16 07:35:13 51°25.141 3°34.176 86.2 0.8 326.2 23.5
2002-01-16 07:36:13 51°25.145 3°34.164 111.8 0.2 212.8 23.7
2002-01-16 07:37:13 51°25.125 3°34.16 142.5 1.5 199.2 23.3
2002-01-16 07:38:13 51°25.11 3°34.152 116 0.6 198.9 23.1
2002-01-16 07:39:13 51°25.101 3°34.146 120.2 0.6 205.8 22.9
2002-01-16 07:40:12 51°25.09 3°34.145 111 0.5 146.6 22.8
2002-01-16 07:41:13 51°25.082 3°34.151 115.2 0.4 180.6 22.7
2002-01-16 07:42:13 51°25.075 3°34.154 113.3 0.6 148.5 22.6
2002-01-16 07:43:13 51°25.065 3°34.165 116.3 0.7 156 22.4
2002-01-16 07:44:13 51°25.056 3°34.184 107.8 0.6 124.7 22.2
2002-01-16 07:45:12 51°25.052 3°34.187 109.7 0.3 141.3 22.2
2002-01-16 07:46:13 51°25.04 3°34.198 119.2 0.6 177.6 22
2002-01-16 07:47:13 51°25.031 3°34.199 114.8 0.8 140.1 21.8
2002-01-16 07:48:13 51°25.019 3°34.203 120.3 0.6 190.8 21.5
2002-01-16 07:49:13 51°25.015 3°34.208 90.7 0.7 66.8 21.5
2002-01-16 07:50:13 51°25.026 3°34.214 75.3 0.9 358.8 21.7
2002-01-16 07:51:13 51°25.04 3°34.207 78.8 0.8 332.6 21.9
2002-01-16 07:52:13 51°25.05 3°34.194 85.8 0.8 314.4 22.1
2002-01-16 07:53:13 51°25.058 3°34.178 90.2 0.8 305.5 22.2
2002-01-16 07:54:12 51°25.067 3°34.165 80.3 0.8 327.8 22.3
2002-01-16 07:55:12 51°25.077 3°34.157 80.8 0.7 339.9 22.5
2002-01-16 07:56:13 51°25.088 3°34.154 90.7 0.5 353.3 22.6
2002-01-16 07:57:13 51°25.093 3°34.154 96.3 0.3 10.8 22.7
2002-01-16 07:58:12 51°25.092 3°34.155 112.7 0.2 178 22.6
2002-01-16 07:59:13 51°25.089 3°34.155 110.2 0.2 181.7 22.6
2002-01-16 08:00:13 51°25.089 3°34.157 99 0.2 59.9 22.5
2002-01-16 08:01:13 51°25.091 3°34.163 100.8 0.3 73.7 22.6
2002-01-16 08:02:13 51°25.09 3°34.169 103.7 0.3 93.6 22.6
2002-01-16 08:03:13 51°25.089 3°34.177 109 0.3 106.8 22.5
2002-01-16 08:04:13 51°25.085 3°34.177 113.3 0.2 223.8 22.4
2002-01-16 08:05:12 51°25.083 3°34.171 106.5 0.2 282.1 22.4
2002-01-16 08:06:13 51°25.083 3°34.162 109.8 0.4 274.9 22.4
2002-01-16 08:07:13 51°25.081 3°34.148 113.8 0.6 276.5 22.4
2002-01-16 08:08:13 51°25.08 3°34.13 119.3 0.7 264.3 22.4
2002-01-16 08:09:13 51°25.078 3°34.109 125.2 0.9 262.5 22.4
2002-01-16 08:10:13 51°25.075 3°34.086 131.2 1 260.1 22.3
2002-01-16 08:11:13 51°25.072 3°34.058 139.3 1.1 260.3 22.3
2002-01-16 08:12:13 51°25.07 3°34.029 142.7 1.1 260 22.2
2002-01-16 08:13:13 51°25.061 3°34.011 124 0.7 225.4 22.1
2002-01-16 08:14:13 51°25.056 3°33.997 113.3 0.6 251.2 22.1
2002-01-16 08:15:12 51°25.054 3°33.981 109.2 0.6 265.8 22
2002-01-16 08:16:13 51°25.054 3°33.963 106.8 0.7 273.8 22
2002-01-16 08:17:13 51°25.055 3°33.944 103.5 0.7 279.3 22.1
2002-01-16 08:18:13 51°25.081 3°33.97 41.2 3.8 18.3 22.4
2002-01-16 08:19:13 51°25.188 3°33.923 351.5 10.4 339.9 23.5
2002-01-16 08:20:13 51°25.397 3°33.792 343 14.4 334 24.3
2002-01-16 08:21:12 51°25.536 3°33.484 288.5 15.3 286.3 25.5
2002-01-16 08:22:13 51°25.549 3°33.063 270.3 15.8 270 25.9
2002-01-16 08:23:13 51°25.531 3°32.646 264.2 15.7 264.3 26.9
2002-01-16 08:24:13 51°25.507 3°32.228 264.5 15.8 264.5 25.1
2002-01-16 08:25:13 51°25.48 3°31.809 264.2 15.8 264 24.4
2002-01-16 08:26:13 51°25.449 3°31.391 262.5 15.8 263 27.6
2002-01-16 08:27:12 51°25.419 3°30.981 262.8 15.8 263.2 26.3
2002-01-16 08:28:13 51°25.388 3°30.554 262.8 15.9 263.3 24.7
2002-01-16 08:29:13 51°25.353 3°30.133 262.2 16 262.4 23
2002-01-16 08:30:13 51°25.318 3°29.714 262.5 15.8 263 21.5
2002-01-16 08:31:13 51°25.282 3°29.3 260.2 15.7 261.1 20.4
2002-01-16 08:32:13 51°25.236 3°28.889 259.3 15.7 259.6 19.3
2002-01-16 08:33:13 51°25.191 3°28.477 260.3 15.8 260 19.2
2002-01-16 08:34:13 51°25.145 3°28.063 259.3 15.8 259.6 19
2002-01-16 08:35:13 51°25.097 3°27.65 260.2 15.8 259.6 17.3
2002-01-16 08:36:13 51°25.046 3°27.24 259.8 15.6 258.1 16
2002-01-16 08:37:13 51°24.993 3°26.834 260.2 15.5 258.4 16.5
2002-01-16 08:38:13 51°24.938 3°26.429 259.5 15.6 257.7 17.5
2002-01-16 08:39:13 51°24.885 3°26.022 263 15.6 260.2 16.7
2002-01-16 08:40:13 51°24.843 3°25.612 263.5 15.6 260.7 17.2
2002-01-16 08:41:13 51°24.799 3°25.205 263 15.5 260.5 17.3
2002-01-16 08:42:13 51°24.757 3°24.801 262.7 15.3 260.5 17.9
2002-01-16 08:43:13 51°24.714 3°24.4 262.8 15.3 260.4 17
2002-01-16 08:44:13 51°24.671 3°24 263.3 15.2 260.2 16.7
2002-01-16 08:45:13 51°24.628 3°23.6 263 15.2 260.5 16.7
2002-01-16 08:46:12 51°24.596 3°23.206 264.8 15.1 262.1 17.4
2002-01-16 08:47:12 51°24.564 3°22.808 265 15 262.7 17.4
2002-01-16 08:48:13 51°24.53 3°22.407 265 14.9 262.5 17.1
2002-01-16 08:49:13 51°24.498 3°22.014 267 14.9 264.2 17.2
2002-01-16 08:50:13 51°24.486 3°21.617 270.2 15 267.2 17.1
2002-01-16 08:51:13 51°24.479 3°21.217 272.3 15 269.5 17.3
2002-01-16 08:52:13 51°24.475 3°20.819 273.3 14.9 270.5 17.5
2002-01-16 08:53:13 51°24.486 3°20.425 276 14.9 272.5 17.1
2002-01-16 08:54:13 51°24.497 3°20.026 276 15 272.5 16.7
2002-01-16 08:55:13 51°24.508 3°19.629 275.8 14.9 272.5 16.1
2002-01-16 08:56:13 51°24.519 3°19.238 275.7 14.8 272.8 16.3
2002-01-16 08:57:13 51°24.533 3°18.843 275.7 14.9 273 16.4
2002-01-16 08:58:13 51°24.547 3°18.446 275.8 15 273.4 16.3
2002-01-16 08:59:13 51°24.563 3°18.047 276 15 273.7 17.1
2002-01-16 09:00:12 51°24.579 3°17.655 275.5 15 273.4 17.2
2002-01-16 09:01:13 51°24.595 3°17.249 275.3 15 273.2 17.1
2002-01-16 09:02:13 51°24.609 3°16.851 275.8 14.9 273.7 17.7
2002-01-16 09:03:13 51°24.615 3°16.453 272.8 14.9 270.9 17.9
2002-01-16 09:04:12 51°24.62 3°16.062 272.5 15 271 17.6
2002-01-16 09:05:13 51°24.621 3°15.656 271.2 15 269 17.7
2002-01-16 09:06:13 51°24.61 3°15.258 269.5 15.2 267.5 17.1
2002-01-16 09:07:13 51°24.601 3°14.851 269.8 15.3 267.9 18.1
2002-01-16 09:08:13 51°24.585 3°14.444 267 15.3 265.4 18.6
2002-01-16 09:09:12 51°24.567 3°14.043 268 15.4 266.1 17.6
2002-01-16 09:10:13 51°24.546 3°13.63 267.8 15.3 265 17.5
2002-01-16 09:11:13 51°24.523 3°13.226 268.2 15.1 265.3 17.5
2002-01-16 09:12:13 51°24.501 3°12.825 268.3 15.2 265.1 17.9
2002-01-16 09:13:13 51°24.474 3°12.424 268 15.1 264.3 17.6
2002-01-16 09:14:13 51°24.449 3°12.024 267.8 15 264.3 17.3
2002-01-16 09:15:13 51°24.423 3°11.632 267.2 14.8 263 16.7
2002-01-16 09:16:13 51°24.392 3°11.239 267 14.9 263.2 17.1
2002-01-16 09:17:13 51°24.362 3°10.847 266.7 14.8 263.1 16.9
2002-01-16 09:18:13 51°24.331 3°10.452 267.2 14.8 262.9 16.5
2002-01-16 09:19:13 51°24.302 3°10.064 267 14.6 263 16.8
2002-01-16 09:20:13 51°24.272 3°9.678 267.2 14.6 263.6 17.1
2002-01-16 09:21:13 51°24.243 3°9.293 267.3 14.6 263.5 17.2
2002-01-16 09:22:13 51°24.213 3°8.908 266.7 14.5 262.7 17.3
2002-01-16 09:23:13 51°24.184 3°8.525 267.3 14.5 263.3 17.5
2002-01-16 09:24:13 51°24.155 3°8.145 266.3 14.4 262.6 17.4
2002-01-16 09:25:13 51°24.128 3°7.766 267.2 14.2 263.7 17.8
2002-01-16 09:26:13 51°24.104 3°7.391 269.5 14.1 265.6 18
2002-01-16 09:27:13 51°24.082 3°7.015 269 14.2 265 17.7
2002-01-16 09:28:13 51°24.07 3°6.639 272.7 14.2 268.3 17.9
2002-01-16 09:29:13 51°24.072 3°6.263 276.8 14 272.1 17.9
2002-01-16 09:30:13 51°24.099 3°5.892 284.2 14 278.7 18.1
2002-01-16 09:31:13 51°24.143 3°5.525 286.2 14.1 280.8 17.8
2002-01-16 09:32:12 51°24.195 3°5.168 289.3 13.9 284.5 18
2002-01-16 09:33:13 51°24.253 3°4.802 290.7 13.8 285.2 18.1
2002-01-16 09:34:13 51°24.315 3°4.446 291.2 14 285.7 18
2002-01-16 09:35:13 51°24.376 3°4.092 291 13.9 285.3 18.3
2002-01-16 09:36:13 51°24.438 3°3.736 290.8 13.9 284.9 18
2002-01-16 09:37:13 51°24.5 3°3.379 296.2 14 288.9 18.1
2002-01-16 09:38:13 51°24.641 3°3.095 323 13.6 316.2 18.4
2002-01-16 09:39:13 51°24.79 3°2.82 316.5 13.6 309 17
2002-01-16 09:40:13 51°24.94 3°2.558 329.3 13.2 322 14.8
2002-01-16 09:41:13 51°25.118 3°2.358 335.5 12.9 327.4 13.8
2002-01-16 09:42:13 51°25.299 3°2.169 334.2 12.9 326.2 12.8
2002-01-16 09:43:13 51°25.481 3°1.993 339.7 12.7 331.3 11.5
2002-01-16 09:44:13 51°25.67 3°1.844 343.7 12.6 336.2 10.9
2002-01-16 09:45:13 51°25.863 3°1.722 344.8 12.5 337.4 10.1
2002-01-16 09:46:13 51°26.059 3°1.617 349.2 12.5 342.3 10.5
2002-01-16 09:47:13 51°26.26 3°1.542 354 12.4 347.6 11.2
2002-01-16 09:48:13 51°26.462 3°1.465 354.5 12.5 347.5 12.6
2002-01-16 09:49:13 51°26.665 3°1.382 354 12.6 346 15
2002-01-16 09:50:13 51°26.869 3°1.332 1.7 12.3 353.2 16.9
2002-01-16 09:51:13 51°27.072 3°1.291 3.2 12.2 353.7 19.5
2002-01-16 09:52:13 51°27.276 3°1.249   12.4 351.7 22.4
2002-01-16 09:53:13 51°27.481 3°1.207 5 12.4 355 23.9
2002-01-16 09:54:13 51°27.683 3°1.216 11.8 12.1 2.9 24.2
2002-01-16 09:55:13 51°27.887 3°1.216 8.3 12.3 359.5 23.8
2002-01-16 09:56:13 51°28.089 3°1.215 8 12.2 359.2 22.8
2002-01-16 09:57:13 51°28.293 3°1.228 10.5 12.2 3 21.5
2002-01-16 09:58:13 51°28.496 3°1.248 10.7 12.2 3 21.3
2002-01-16 09:59:13 51°28.698 3°1.276 14.5 12.1 7.1 21.5
2002-01-16 10:00:13 51°28.897 3°1.311 14.5 12 7.1 21.9
2002-01-16 10:01:13 51°29.098 3°1.337 11.2 12.1 3.2 23.2
2002-01-16 10:02:12 51°29.294 3°1.366 11.8 12.1 4.3 25.5
2002-01-16 10:03:13 51°29.498 3°1.397 14.2 12.1 6.3 27.2
2002-01-16 10:04:13 51°29.699 3°1.425 11 12.2 3.1 27.1
2002-01-16 10:05:13 51°29.9 3°1.449 12.2 12.1 4.6 28.6
2002-01-16 10:06:13 51°30.102 3°1.482 13.7 12.3 6.3 29.2
2002-01-16 10:07:13 51°30.306 3°1.51 13.7 12.3 4.7 28.6
2002-01-16 10:08:13 51°30.509 3°1.536 11.5 12.4 3 27.7
2002-01-16 10:09:12 51°30.711 3°1.558 10.5 12.3 2.8 27.3
2002-01-16 10:10:13 51°30.918 3°1.581 12.5 12.4 5.3 27.7
2002-01-16 10:11:12 51°31.117 3°1.602 11.8 12.2 4.1 28.1
2002-01-16 10:12:13 51°31.324 3°1.621 13.2 12.3 4.6 28.2
2002-01-16 10:13:13 51°31.528 3°1.643 12.5 12.3 3.2 27.5
2002-01-16 10:14:13 51°31.733 3°1.66 11.8 12.4 3.6 27
2002-01-16 10:15:13 51°31.936 3°1.698 13.8 12.3 7 27.2
2002-01-16 10:16:13 51°32.142 3°1.734 10.8 12.5 4.2 26
2002-01-16 10:17:13 51°32.349 3°1.764 12.3 12.4 6.1 24.8
2002-01-16 10:18:14 51°32.556 3°1.8 14.8 12.3 7.2 24.9
2002-01-16 10:19:13 51°32.755 3°1.832 11.8 12.3 4.3 24.2
2002-01-16 10:20:13 51°32.958 3°1.866 11.2 12.2 4.8 24.9
2002-01-16 10:21:13 51°33.161 3°1.89 11.2 12.3 4.3 28.8
2002-01-16 10:22:12 51°33.364 3°1.92 12.2 12.4 5.2 32.5
2002-01-16 10:23:13 51°33.576 3°1.947 13.3 12.6 5.8 34.4
2002-01-16 10:24:13 51°33.783 3°1.973 12.2 12.3 4.9 35.4
2002-01-16 10:25:13 51°33.987 3°2.001 10.5 12.2 4.2 33.2
2002-01-16 10:26:12 51°34.185 3°2.036 12 12.1 6.5 27.7
2002-01-16 10:27:13 51°34.389 3°2.064 9.3 12.1 4.5 21.5
2002-01-16 10:28:12 51°34.584 3°2.091 11.8 12 6.3 21.2
2002-01-16 10:29:13 51°34.786 3°2.107 7.8 12 1.1 19
2002-01-16 10:30:13 51°34.985 3°2.124 9.5 12 3.9 19.4
2002-01-16 10:31:13 51°35.185 3°2.148 9.2 12.1 3.8 20.3
2002-01-16 10:32:14 51°35.389 3°2.173 11.2 12.2 4.6 22.5
2002-01-16 10:33:13 51°35.587 3°2.188 9.3 12.2 1.9 23.8
2002-01-16 10:34:13 51°35.789 3°2.202 8.3 12.1 0.6 23.8
2002-01-16 10:35:13 51°35.991 3°2.22 9.7 12.2 4.4 28.4
2002-01-16 10:36:13 51°36.195 3°2.234 10 12.2 2.8 28
2002-01-16 10:37:13 51°36.398 3°2.247 10 12.2 2.7 30.6
2002-01-16 10:38:13 51°36.603 3°2.26 11.2 12.3 3.1 33.1
2002-01-16 10:39:13 51°36.807 3°2.267 9.2 12.3 0.2 28.4
2002-01-16 10:40:13 51°37.011 3°2.274 9 12.2 0.9 34.6
2002-01-16 10:41:12 51°37.212 3°2.284 9.8 12.3 1.8 35.1
2002-01-16 10:42:13 51°37.42 3°2.289 10.7 12.2 2.3 33.7
2002-01-16 10:43:13 51°37.625 3°2.305 10.7 12.3 3.4 36.2
2002-01-16 10:44:13 51°37.831 3°2.325 13 12.4 4.8 35.5
2002-01-16 10:45:13 51°38.036 3°2.361 13.8 12.3 8 31.1
2002-01-16 10:46:13 51°38.242 3°2.391 10.8 12.4 4.4 30.8
2002-01-16 10:47:13 51°38.445 3°2.426 11.3 12.3 5.7 29.4
2002-01-16 10:48:13 51°38.649 3°2.465 13.7 12.4 7 29.2
2002-01-16 10:49:13 51°38.854 3°2.497 12.7 12.3 4.9 27.7
2002-01-16 10:50:13 51°39.055 3°2.528 11 12.1 5.2 29.9
2002-01-16 10:51:13 51°39.255 3°2.563 11.5 12.1 5.9 29.5
2002-01-16 10:52:12 51°39.452 3°2.591 13.5 12.1 6.1 29.1
2002-01-16 10:53:13 51°39.655 3°2.615 12.7 12.1 5 36.3
2002-01-16 10:54:13 51°39.855 3°2.642 10.5 12.1 3.3 32.6
2002-01-16 10:55:12 51°40.051 3°2.669 11.3 12 5.1 32.3
2002-01-16 10:56:13 51°40.256 3°2.697 13.2 12.1 6 36.2
2002-01-16 10:57:13 51°40.459 3°2.726 13.2 12.3 6 33.9
2002-01-16 10:58:13 51°40.662 3°2.755 10.2 12.2 4.4 35.1
2002-01-16 10:59:13 51°40.866 3°2.79 10.8 12.4 5.7 36.9
2002-01-16 11:00:13 51°41.069 3°2.826 11.7 12.3 6.2 35.9
2002-01-16 11:01:13 51°41.273 3°2.851 11.3 12.2 5.1 36.2
2002-01-16 11:02:13 51°41.476 3°2.878 12.8 12.2 5.9 33.6
2002-01-16 11:03:13 51°41.679 3°2.904 10.8 12.3 4.2 30.5
2002-01-16 11:04:13 51°41.883 3°2.935 10.5 12.3 4.4 28.1
2002-01-16 11:05:13 51°42.086 3°2.957 8.3 12.2 2.4 26.3
2002-01-16 11:06:13 51°42.29 3°2.983 12.5 12.3 6.8 26.7
2002-01-16 11:07:13 51°42.493 3°3.004 10.2 12.2 3.3 26.9
2002-01-16 11:08:13 51°42.698 3°3.024 8.3 12.5 2.7 24.7
2002-01-16 11:09:13 51°42.903 3°3.046 8.8 12.3 3.4 35.2
2002-01-16 11:10:13 51°43.108 3°3.064 10.8 12.4 4.2 35.2
2002-01-16 11:11:13 51°43.311 3°3.084 13.7 12.2 5.4 37
2002-01-16 11:12:13 51°43.5 3°3.108 1.5 8.6 353.6 38.4
2002-01-16 11:13:13 51°43.571 3°3.037 315.5 2.5 290.2 41.3
2002-01-16 11:14:14 51°43.549 3°3.042 318.2 1.1 237.7 -999
2002-01-16 11:15:13 51°43.554 3°3.018 13 1.2 338.8 41.4
2002-01-16 11:16:13 51°43.581 3°3.051 45.2 2.9 46 40.7
2002-01-16 11:17:13 51°43.606 3°3.106 45.8 0.5 79.3 39.5
2002-01-16 11:18:13 51°43.605 3°3.104 23.3 0.2 260.5 39.2
2002-01-16 11:19:13 51°43.601 3°3.097 22.7 0.3 233.7 38.9
2002-01-16 11:20:13 51°43.597 3°3.089 18.7 0.5 230.8 38.8
2002-01-16 11:21:12 51°43.592 3°3.079 13.8 0.5 232 39.5
2002-01-16 11:22:13 51°43.586 3°3.067 10.8 0.6 229.9 40.1
2002-01-16 11:23:13 51°43.579 3°3.055 9 0.6 226.1 40.7
2002-01-16 11:24:13 51°43.572 3°3.044 6.8 0.6 225.9 41.1
2002-01-16 11:25:13 51°43.564 3°3.032 2.7 0.7 223.1 41.3
2002-01-16 11:26:13 51°43.556 3°3.019 357.3 0.7 224 41.4
2002-01-16 11:27:13 51°43.546 3°3.004 349.8 0.8 222.9 41.4
2002-01-16 11:28:13 51°43.536 3°2.99 346.3 0.8 215.5 40.7
2002-01-16 11:29:13 51°43.525 3°2.977 346.3 0.8 213.4 39.6
2002-01-16 11:30:13 51°43.513 3°2.964 345.2 0.8 213.6 38.7
2002-01-16 11:31:12 51°43.502 3°2.952 343.2 0.8 213.8 38.1
2002-01-16 11:32:13 51°43.49 3°2.94 339.2 0.9 210.5 37.7
2002-01-16 11:33:13 51°43.476 3°2.928 330.8 0.9 210.3 37.4
2002-01-16 11:34:13 51°43.489 3°2.887 334.5 5.6 320 36.9
2002-01-16 11:35:13 51°43.61 3°2.735 323 10.9 313.1 38
2002-01-16 11:36:13 51°43.756 3°2.522 330.5 12 321.2 34.1
2002-01-16 11:37:13 51°43.905 3°2.322 329.8 11.5 320.1 33.1
2002-01-16 11:38:13 51°44.05 3°2.123 328.5 11.4 319.8 30.8
2002-01-16 11:39:13 51°44.189 3°1.93 328.7 10.8 319.4 28.8
2002-01-16 11:40:12 51°44.322 3°1.749 329.3 10.5 320 27.3
2002-01-16 11:41:13 51°44.453 3°1.565 328.8 10.2 319.5 28.9
2002-01-16 11:42:13 51°44.58 3°1.388 329 10 318.8 26.5
2002-01-16 11:43:13 51°44.705 3°1.209 329.5 10.1 318.6 25.8
2002-01-16 11:44:13 51°44.83 3°1.032 329.5 10 319.3 30.1
2002-01-16 11:45:13 51°44.958 3°0.859 328.8 10 319.9 32.7
2002-01-16 11:46:13 51°45.085 3°0.684 328.8 10.1 319.4 34.2
2002-01-16 11:47:13 51°45.215 3°0.512 328.2 10.1 319.7 35.5
2002-01-16 11:48:14 51°45.347 3°0.335 325.8 10.2 317.4 36.4
2002-01-16 11:49:13 51°45.468 3°0.151 325.3 10.1 316.5 33.9
2002-01-16 11:50:13 51°45.592 2°59.968 325.7 10.2 316.9 35
2002-01-16 11:51:14 51°45.721 2°59.78 325.7 10.2 317.2 36.2
2002-01-16 11:52:13 51°45.844 2°59.598 326.5 10.2 318.2 36.2
2002-01-16 11:53:13 51°45.967 2°59.409 324.7 10.2 316 32.6
2002-01-16 11:54:13 51°46.091 2°59.22 325.2 10.2 316.7 36
2002-01-16 11:55:13 51°46.215 2°59.034 324.7 10.2 317.4 38
2002-01-16 11:56:13 51°46.338 2°58.849 325.8 10.1 317.8 37
2002-01-16 11:57:13 51°46.462 2°58.667 324.2 10.1 316.8 33.4
2002-01-16 11:58:13 51°46.585 2°58.484 325.3 10.1 317.7 34.9
2002-01-16 11:59:13 51°46.708 2°58.299 325 10 317.2 35
2002-01-16 12:00:13 51°46.83 2°58.116 325 10.1 317 31.2
2002-01-16 12:01:13 51°46.953 2°57.933 325 10.1 317.7 38.7
2002-01-16 12:02:13 51°47.078 2°57.75 325 10.1 317.6 34.6
2002-01-16 12:03:14 51°47.205 2°57.566 324.7 10.1 317.7 39.9
2002-01-16 12:04:13 51°47.328 2°57.386 324.3 10.1 317.5 39.4
2002-01-16 12:05:13 51°47.452 2°57.204 324.7 10 317.8 35.3
2002-01-16 12:06:13 51°47.575 2°57.023 324.7 10 317.5 33.4
2002-01-16 12:07:13 51°47.699 2°56.844 324.8 10 318.3 39.3
2002-01-16 12:08:13 51°47.823 2°56.662 324.5 10.1 317.2 37.9
2002-01-16 12:09:13 51°47.948 2°56.482 324 10.1 317.6 34.8
2002-01-16 12:10:13 51°48.072 2°56.301 324.8 10.1 317.9 38.3
2002-01-16 12:11:13 51°48.197 2°56.121 324.3 10 318.3 34.7
2002-01-16 12:12:13 51°48.321 2°55.941 324.5 10 317.9 33.5
2002-01-16 12:13:14 51°48.449 2°55.757 325.2 10.1 318.7 36.8
2002-01-16 12:14:13 51°48.571 2°55.579 324.7 10 317.2 33.3
2002-01-16 12:15:13 51°48.694 2°55.399 325.2 10 318.8 36.6
2002-01-16 12:16:13 51°48.816 2°55.213 322 10.1 315.2 39.3
2002-01-16 12:17:13 51°48.937 2°55.025 323.2 10.1 316.4 34
2002-01-16 12:18:14 51°49.062 2°54.836 323.3 10.1 317.1 40.9
2002-01-16 12:19:13 51°49.183 2°54.651 323 10.1 316.4 42.3
2002-01-16 12:20:14 51°49.307 2°54.462 323.5 10.1 316.8 43.8
2002-01-16 12:21:13 51°49.427 2°54.276 322.5 10.1 316.5 41.3
2002-01-16 12:22:14 51°49.551 2°54.086 322.5 10.1 316.4 41.1
2002-01-16 12:23:13 51°49.67 2°53.901 322.8 10.1 316.1 39
2002-01-16 12:24:13 51°49.787 2°53.707 319.2 10.2 313.1 39.1
2002-01-16 12:25:13 51°49.903 2°53.508 319.8 10.1 313.6 39.2
2002-01-16 12:26:13 51°50.019 2°53.309 319.7 10.1 313.4 39
2002-01-16 12:27:12 51°50.135 2°53.117 322 10.1 315.4 37.6
2002-01-16 12:28:13 51°50.26 2°52.929 323.2 10.1 317.6 37.9
2002-01-16 12:29:13 51°50.383 2°52.745 322.8 10.1 317 35.5
2002-01-16 12:30:13 51°50.506 2°52.559 322.5 10.1 316.6 39.1
2002-01-16 12:31:13 51°50.629 2°52.372 322.7 10.2 316.8 38.4
2002-01-16 12:32:13 51°50.752 2°52.188 322.5 10 317.4 42.9
2002-01-16 12:33:13 51°50.873 2°52.007 323.5 8.8 317.8 41.6
2002-01-16 12:34:13 51°50.949 2°51.9 350.3 5 342.4 36.7
2002-01-16 12:35:13 51°50.991 2°51.996 100 5.6 100.5 39.8
2002-01-16 12:36:13 51°50.907 2°52.064 182.3 5.9 176.8 38.4
2002-01-16 12:37:13 51°50.849 2°52.065 201.7 0.8 137.8 44.3
2002-01-16 12:38:13 51°50.851 2°52.082 189.2 0.5 82.2 43.9
2002-01-16 12:39:13 51°50.847 2°52.095 173.2 0.8 139.1 43.7
2002-01-16 12:40:13 51°50.828 2°52.112 176.2 1.4 154.2 43.1
2002-01-16 12:41:13 51°50.807 2°52.127 181.7 1.3 156.4 42.6
2002-01-16 12:42:13 51°50.791 2°52.142 181.3 1.1 145.7 41.5
2002-01-16 12:43:13 51°50.752 2°52.13 231.2 4.9 218.5 42.2
2002-01-16 12:44:13 51°50.738 2°52.044 303.7 3.2 287.8 40.4
2002-01-16 12:45:13 51°50.79 2°52.023 15.5 4 14 41.8
2002-01-16 12:46:12 51°50.854 2°52.033 348 4 350.4 43.9
2002-01-16 12:47:13 51°50.875 2°52.014 304.3 0.5 105 42
2002-01-16 12:48:13 51°50.878 2°52.011 291 0.3 284.6 41.6
2002-01-16 12:49:13 51°50.877 2°52.003 276.5 0.4 261.5 41.7
2002-01-16 12:50:13 51°50.874 2°51.994 265.7 0.4 236.3 42.1
2002-01-16 12:51:13 51°50.87 2°51.986 261.2 0.4 235.8 42.9
2002-01-16 12:52:13 51°50.866 2°51.978 257.8 0.3 230.2 42.8
2002-01-16 12:53:13 51°50.863 2°51.973 255.8 0.3 230.3 42.8
2002-01-16 12:54:13 51°50.861 2°51.969 253.2 0.2 171 42.8
2002-01-16 12:55:13 51°50.86 2°51.974 258.2 0.3 90.6 42.9
2002-01-16 12:56:13 51°50.861 2°51.983 271.5 0.5 79.2 43.4
2002-01-16 12:57:13 51°50.865 2°51.997 290 0.5 77 43.4
2002-01-16 12:58:13 51°50.846 2°51.942 217.5 4.5 214.9 42.3
2002-01-16 12:59:14 51°50.721 2°52.01 166.2 11.3 162.6 39.5
2002-01-16 13:00:13 51°50.507 2°52.035 177.8 13.8 175.8 39
2002-01-16 13:01:14 51°50.273 2°52.039 180.3 13.8 178.9 41.2
2002-01-16 13:02:14 51°50.043 2°52.043 180.7 13.9 179 40.8
2002-01-16 13:03:14 51°49.811 2°52.05 181 13.9 178.7 39.2
2002-01-16 13:04:14 51°49.581 2°52.056 180.7 13.8 179.3 38
2002-01-16 13:05:14 51°49.353 2°52.061 180.8 13.9 178.9 39.7
2002-01-16 13:06:13 51°49.128 2°52.069 180.7 13.8 178.6 40.2
2002-01-16 13:07:14 51°48.897 2°52.074 180.3 13.7 178.6 37.5
2002-01-16 13:08:14 51°48.668 2°52.083 181.2 13.7 179.3 40.3
2002-01-16 13:09:14 51°48.44 2°52.089 181.3 13.8 179.1 37
2002-01-16 13:10:14 51°48.214 2°52.098 180.5 13.7 179 36.3
2002-01-16 13:11:14 51°47.987 2°52.106 180.8 13.7 178.5 37.7
2002-01-16 13:12:13 51°47.765 2°52.112 181.8 13.6 179.7 41.1
2002-01-16 13:13:14 51°47.533 2°52.106 182.3 13.8 180.5 36.5
2002-01-16 13:14:13 51°47.311 2°52.105 183 13.5 180.1 41.1
2002-01-16 13:15:14 51°47.081 2°52.102 182.7 13.6 180.6 34.4
2002-01-16 13:16:14 51°46.857 2°52.102 183 13.5 180.1 35.4
2002-01-16 13:17:13 51°46.635 2°52.102 182.5 13.6 180 38.4
2002-01-16 13:18:14 51°46.408 2°52.103 182.2 13.5 180 41
2002-01-16 13:19:14 51°46.183 2°52.101 183.2 13.5 180 36.6
2002-01-16 13:20:13 51°45.963 2°52.102 182 13.5 179.3 38.1
2002-01-16 13:21:14 51°45.735 2°52.104 182.3 13.6 179.6 37.3
2002-01-16 13:22:14 51°45.51 2°52.104 182.5 13.6 179.3 37.8
2002-01-16 13:23:14 51°45.286 2°52.108 182.7 13.5 179.3 38.3
2002-01-16 13:24:14 51°45.065 2°52.113 183.2 13.3 179.6 37.4
2002-01-16 13:25:14 51°44.844 2°52.122 182.8 13.3 178.9 40.2
2002-01-16 13:26:14 51°44.623 2°52.125 182 13.2 179.1 37.1
2002-01-16 13:27:14 51°44.403 2°52.131 182.7 13.5 179.3 37
2002-01-16 13:28:14 51°44.181 2°52.133 182.7 13.3 179.9 39
2002-01-16 13:29:14 51°43.962 2°52.137 183 13.2 179.3 39.1
2002-01-16 13:30:14 51°43.74 2°52.143 183 13.3 179.5 35.6
2002-01-16 13:31:14 51°43.52 2°52.149 182.7 13.3 178.4 40.1
2002-01-16 13:32:13 51°43.303 2°52.153 182.7 13.3 179.6 43.7
2002-01-16 13:33:14 51°43.08 2°52.157 182.5 13.2 179.1 40.8
2002-01-16 13:34:14 51°42.862 2°52.163 182.5 13.1 179.2 36.1
2002-01-16 13:35:13 51°42.648 2°52.17 183.2 13.2 178.3 39.3
2002-01-16 13:36:14 51°42.426 2°52.178 183.2 13.2 178.8 39.9
2002-01-16 13:37:14 51°42.21 2°52.185 183.7 13 179.1 37.5
2002-01-16 13:38:14 51°41.994 2°52.177 185 13 181.4 39.8
2002-01-16 13:39:14 51°41.776 2°52.171 184.8 13 180.9 33.3
2002-01-16 13:40:14 51°41.56 2°52.172 183.3 13 178.5 38.8
2002-01-16 13:41:14 51°41.343 2°52.182 183.7 13 177.7 40.8
2002-01-16 13:42:14 51°41.128 2°52.189 185 12.9 179.3 32.3
2002-01-16 13:43:14 51°40.914 2°52.193 185.5 12.9 179.2 38.5
2002-01-16 13:44:14 51°40.701 2°52.197 185.8 12.9 179.8 36.4
2002-01-16 13:45:14 51°40.487 2°52.195 186.7 12.9 180.1 34.5
2002-01-16 13:46:13 51°40.277 2°52.196 186.7 12.8 180.4 34.4
2002-01-16 13:47:14 51°40.062 2°52.189 187.5 12.7 180.8 32.8
2002-01-16 13:48:14 51°39.851 2°52.185 186 12.7 180 36.3
2002-01-16 13:49:14 51°39.642 2°52.15 195 12.6 189.2 35.7
2002-01-16 13:50:14 51°39.438 2°52.109 193.2 12.3 185.9 34.6
2002-01-16 13:51:14 51°39.239 2°52.047 199 12.3 193.2 33.2
2002-01-16 13:52:14 51°39.037 2°51.976 196.5 12.5 190.8 37.7
2002-01-16 13:53:14 51°38.832 2°51.927 193.5 12.5 187.7 37.6
2002-01-16 13:54:13 51°38.63 2°51.895 189.2 12.5 183.3 35.7
2002-01-16 13:55:14 51°38.415 2°51.922 181.7 12.7 174.2 35.5
2002-01-16 13:56:14 51°38.206 2°51.94 183.5 12.5 176.8 38.2
2002-01-16 13:57:13 51°38.001 2°51.96 182.5 12.5 176 37.7
2002-01-16 13:58:14 51°37.79 2°51.987 183 12.6 175.6 36.7
2002-01-16 13:59:14 51°37.582 2°52.014 183.7 12.7 176.6 38.6
2002-01-16 14:00:14 51°37.373 2°52.039 182.3 12.6 175.1 35.1
2002-01-16 14:01:14 51°37.164 2°52.066 183.3 12.7 175.5 31.5
2002-01-16 14:02:14 51°36.956 2°52.086 183.7 12.7 176.3 34.8
2002-01-16 14:03:14 51°36.747 2°52.104 184.3 12.6 176.5 31.6
2002-01-16 14:04:14 51°36.539 2°52.118 184.8 12.4 178.4 29.2
2002-01-16 14:05:14 51°36.333 2°52.128 186.7 12.4 179.9 28.8
2002-01-16 14:06:14 51°36.125 2°52.135 186.2 12.5 178.6 26
2002-01-16 14:07:14 51°35.918 2°52.144 185.8 12.5 177.6 27.8
2002-01-16 14:08:14 51°35.717 2°52.155 185 11.9 178.2 28.7
2002-01-16 14:09:14 51°35.517 2°52.159 186.8 12 180.9 34
2002-01-16 14:10:14 51°35.32 2°52.152 186.3 11.9 180.5 36.1
2002-01-16 14:11:14 51°35.12 2°52.154 185.3 12.1 179.4 37
2002-01-16 14:12:14 51°34.921 2°52.152 186.2 12 180.5 38.9
2002-01-16 14:13:14 51°34.721 2°52.152 185.7 12 179.9 39.7
2002-01-16 14:14:14 51°34.522 2°52.152 185.7 11.9 179.7 40.7
2002-01-16 14:15:14 51°34.321 2°52.154 185.5 12.2 179.2 39.7
2002-01-16 14:16:14 51°34.121 2°52.158 185.2 12 178.9 38.8
2002-01-16 14:17:14 51°33.92 2°52.158 186.3 12.1 179.7 37.9
2002-01-16 14:18:14 51°33.721 2°52.164 185.3 11.9 178.3 37.5
2002-01-16 14:19:13 51°33.525 2°52.172 185.3 12 179 34.6
2002-01-16 14:20:14 51°33.322 2°52.175 186.7 12.1 179.8 35.6
2002-01-16 14:21:14 51°33.122 2°52.178 186.5 12 179.3 35.5
2002-01-16 14:22:14 51°32.92 2°52.182 187.2 12.2 179.4 34.1
2002-01-16 14:23:14 51°32.719 2°52.188 187.3 12 178.8 29.1
2002-01-16 14:24:14 51°32.517 2°52.187 189.8 12.1 182.3 31.9
2002-01-16 14:25:14 51°32.314 2°52.182 187.7 12.3 179.7 31.4
2002-01-16 14:26:14 51°32.109 2°52.183 187.8 12.4 180.1 30.6
2002-01-16 14:27:14 51°31.902 2°52.179 187.7 12.4 180.5 28.9
2002-01-16 14:28:13 51°31.7 2°52.17 189.2 12.3 182.6 27.2
2002-01-16 14:29:14 51°31.49 2°52.163 187.8 12.3 181.2 26.1
2002-01-16 14:30:14 51°31.283 2°52.16 187.8 12.5 180.8 26
2002-01-16 14:31:14 51°31.077 2°52.161 187 12.4 180 24.5
2002-01-16 14:32:14 51°30.87 2°52.163 186 12.6 178.9 23.5
2002-01-16 14:33:14 51°30.662 2°52.169 185.5 12.5 179 22.3
2002-01-16 14:34:13 51°30.458 2°52.172 185.3 12.5 179.3 28.3
2002-01-16 14:35:13 51°30.25 2°52.187 186.2 12.2 176.6 32.9
2002-01-16 14:36:13 51°30.048 2°52.196 186.8 12.2 177.5 34
2002-01-16 14:37:13 51°29.847 2°52.209 187 12.2 178 33.3
2002-01-16 14:38:13 51°29.645 2°52.219 186.8 12.2 178.2 33.3
2002-01-16 14:39:14 51°29.442 2°52.229 186.2 12 177.7 33.8
2002-01-16 14:40:14 51°29.242 2°52.24 186.5 12 177.5 32.4
2002-01-16 14:41:14 51°29.043 2°52.251 186.8 11.9 178.5 33.3
2002-01-16 14:42:14 51°28.841 2°52.258 187 12.1 178.1 32.5
2002-01-16 14:43:14 51°28.64 2°52.27 186.7 12.2 178 31.6
2002-01-16 14:44:14 51°28.44 2°52.279 186.7 12 177.7 29.6
2002-01-16 14:45:14 51°28.241 2°52.282 188.3 12 179.5 27
2002-01-16 14:46:14 51°28.041 2°52.286 187.5 12.1 179.6 25.8
2002-01-16 14:47:14 51°27.839 2°52.288 187.7 12.3 179.8 24.6
2002-01-16 14:48:14 51°27.636 2°52.286 188.2 12.3 180.7 22.9
2002-01-16 14:49:13 51°27.434 2°52.283 187.5 12.4 180.7 25.2
2002-01-16 14:50:13 51°27.228 2°52.275 188.2 12.4 181.1 25.1
2002-01-16 14:51:14 51°27.017 2°52.273 187.3 12.5 179.8 28.2
2002-01-16 14:52:14 51°26.81 2°52.275 187.7 12.5 179.3 29.5
2002-01-16 14:53:14 51°26.604 2°52.278 188.2 12.4 179.5 29.8
2002-01-16 14:54:14 51°26.398 2°52.28 188.3 12.3 179.4 30.6
2002-01-16 14:55:14 51°26.193 2°52.282 188 12.3 179.8 30.3
2002-01-16 14:56:14 51°25.988 2°52.283 188.2 12.2 180.2 30.4
2002-01-16 14:57:14 51°25.784 2°52.28 187 12.2 179.4 29.3
2002-01-16 14:58:14 51°25.581 2°52.278 187.7 12.1 179.5 28.3
2002-01-16 14:59:14 51°25.38 2°52.278 187.5 12.2 179.6 28.9
2002-01-16 15:00:14 51°25.179 2°52.275 188 12.1 179.6 28.5
2002-01-16 15:01:14 51°24.978 2°52.275 187.5 12.1 180.1 28
2002-01-16 15:02:14 51°24.777 2°52.269 187.8 12.1 180.5 25.6
2002-01-16 15:03:14 51°24.573 2°52.257 188.7 12.4 183.3 23.5
2002-01-16 15:04:14 51°24.364 2°52.242 187.8 12.5 182.8 21.5
2002-01-16 15:05:14 51°24.156 2°52.229 188.2 12.5 183.1 21.7
2002-01-16 15:06:13 51°23.951 2°52.217 187.2 12.6 181.8 21
2002-01-16 15:07:14 51°23.74 2°52.21 187.3 12.5 181.3 19.3
2002-01-16 15:08:14 51°23.533 2°52.202 186.7 12.3 181 20.3
2002-01-16 15:09:14 51°23.331 2°52.202 187 11.9 179.7 23.1
2002-01-16 15:10:13 51°23.138 2°52.21 187 11.7 178.4 26.7
2002-01-16 15:11:14 51°22.938 2°52.22 186.7 11.9 178.1 26.9
2002-01-16 15:12:14 51°22.738 2°52.229 186.3 12 177.6 26.3
2002-01-16 15:13:14 51°22.537 2°52.241 187 12 178.3 26.1
2002-01-16 15:14:14 51°22.336 2°52.252 186.7 12.2 177.6 26.8
2002-01-16 15:15:14 51°22.133 2°52.264 187.3 12.2 178.2 27.2
2002-01-16 15:16:14 51°21.93 2°52.276 187 12.2 177.8 27.2
2002-01-16 15:17:14 51°21.726 2°52.291 186.7 12.3 177.7 25.7
2002-01-16 15:18:14 51°21.521 2°52.302 187.3 12.3 178.9 23
2002-01-16 15:19:14 51°21.315 2°52.311 186.8 12.4 178.5 20.8
2002-01-16 15:20:14 51°21.109 2°52.319 186.8 12.4 178.9 18.9
2002-01-16 15:21:14 51°20.902 2°52.325 187 12.4 179.8 17.5
2002-01-16 15:22:14 51°20.695 2°52.325 186.8 12.5 180.1 17.1
2002-01-16 15:23:14 51°20.484 2°52.319 187.2 12.7 181.4 17.7
2002-01-16 15:24:14 51°20.273 2°52.314 186.8 12.5 181.7 18.9
2002-01-16 15:25:14 51°20.062 2°52.304 186.7 12.7 181 19.2
2002-01-16 15:26:14 51°19.852 2°52.297 187 12.6 181.1 19.1
2002-01-16 15:27:14 51°19.642 2°52.291 186.5 12.6 180.6 18.7
2002-01-16 15:28:14 51°19.434 2°52.285 186.5 12.5 181 18.2
2002-01-16 15:29:14 51°19.227 2°52.278 187.5 12.4 181.8 17.6
2002-01-16 15:30:14 51°19.023 2°52.268 186.7 12.2 182 16.6
2002-01-16 15:31:12 51°18.823 2°52.258 187.2 12.5 182.5 15.6
2002-01-16 15:32:14 51°18.608 2°52.242 186.8 12.6 182.9 14.7
2002-01-16 15:33:14 51°18.396 2°52.232 187 12.7 181.4 14.2
2002-01-16 15:34:14 51°18.186 2°52.22 187 12.7 182.1 13.7
2002-01-16 15:35:12 51°17.983 2°52.209 186.7 12.6 181.3 13.3
2002-01-16 15:36:14 51°17.767 2°52.196 186.5 12.4 181.8 13.2
2002-01-16 15:37:12 51°17.567 2°52.184 186.5 12.4 181.6 13
2002-01-16 15:38:14 51°17.359 2°52.276 161.5 12.8 155.6 6.6
2002-01-16 15:39:14 51°17.158 2°52.397 167.2 12.9 161.9 12.7
2002-01-16 15:40:14 51°16.952 2°52.506 167.3 13 160.9 12.5
2002-01-16 15:41:14 51°16.758 2°52.658 154.2 13.2 147.5 12.3
2002-01-16 15:42:13 51°16.564 2°52.809 162.7 13.2 156.4 14.4
2002-01-16 15:43:13 51°16.365 2°52.956 162.8 13.1 154.8 15.1
2002-01-16 15:44:13 51°16.17 2°53.106 162.2 13.1 154.8 14.9
2002-01-16 15:45:13 51°15.975 2°53.272 159 13.3 151.5 14.6
2002-01-16 15:46:14 51°15.78 2°53.451 156 13.4 149 14.1
2002-01-16 15:47:13 51°15.592 2°53.631 156.7 13.3 149.2 13.4
2002-01-16 15:48:13 51°15.403 2°53.816 154.7 13.3 147.5 12.6
2002-01-16 15:49:14 51°15.216 2°54.015 152.2 13.2 146.4 11.9
2002-01-16 15:50:13 51°15.036 2°54.207 150 13.4 144 11.2
2002-01-16 15:51:13 51°14.858 2°54.424 148.8 13.5 142.2 12
2002-01-16 15:52:14 51°14.679 2°54.643 148.3 13.1 141 11.9
2002-01-16 15:53:14 51°14.507 2°54.861 147.5 13.2 141.3 12.2
2002-01-16 15:54:14 51°14.348 2°55.084 133.3 11.7 131.1 12.6
2002-01-16 15:55:17 51°14.25 2°55.281 134.5 8 130.8 -999
2002-01-16 15:56:18 51°14.154 2°55.396 155.7 6.4 151.9 -999
2002-01-16 15:57:18 51°14.06 2°55.465 158.3 5.9 155.9 -999
2002-01-16 15:58:18 51°13.964 2°55.53 159 6.5 156.8 -999
2002-01-16 15:59:18 51°13.863 2°55.602 157.8 6.6 155.1 -999
2002-01-16 16:00:18 51°13.77 2°55.682 144.8 5.5 143.7 -999
2002-01-16 16:01:18 51°13.725 2°55.767 124.3 3.6 121.9 -999
2002-01-16 16:02:18 51°13.701 2°55.84 117.2 2.6 114.2 -999
2002-01-16 16:03:18 51°13.689 2°55.901 109.2 2.4 106.6 -999
2002-01-16 16:04:18 51°13.688 2°55.904 126 0.4 297.8 -999